createdAt,value
2019-05-16T00:02:01.040Z,95.31
2019-05-16T00:04:30.916Z,95.31
2019-05-16T00:07:02.740Z,95.16
2019-05-16T00:09:38.002Z,95.02
2019-05-16T00:12:08.929Z,95.39
2019-05-16T00:14:41.751Z,95.13
2019-05-16T00:17:13.326Z,95.24
2019-05-16T00:19:44.665Z,95.29
2019-05-16T00:22:18.195Z,95.03
2019-05-16T00:24:49.151Z,95.05
2019-05-16T00:27:20.466Z,95.04
2019-05-16T00:29:52.342Z,95.02
2019-05-16T00:32:28.168Z,95.29
2019-05-16T00:34:59.957Z,95.12
2019-05-16T00:37:41.290Z,95.28
2019-05-16T00:40:18.828Z,95.39
2019-05-16T00:42:50.203Z,95.61
2019-05-16T00:45:25.546Z,95.20
2019-05-16T00:47:58.542Z,95.29
2019-05-16T00:50:30.334Z,95.01
2019-05-16T00:53:01.829Z,95.22
2019-05-16T00:55:33.561Z,94.79
2019-05-16T00:58:05.679Z,95.11
2019-05-16T01:00:50.330Z,94.57
2019-05-16T01:03:22.032Z,94.60
2019-05-16T01:05:53.401Z,94.61
2019-05-16T01:08:24.874Z,94.45
2019-05-16T01:10:58.686Z,93.86
2019-05-16T01:13:32.568Z,93.79
2019-05-16T01:16:04.043Z,93.40
2019-05-16T01:18:37.923Z,93.75
2019-05-16T01:21:09.200Z,94.06
2019-05-16T01:23:40.477Z,93.97
2019-05-16T01:26:11.886Z,94.09
2019-05-16T01:28:45.108Z,93.96
2019-05-16T01:31:19.038Z,94.21
2019-05-16T01:33:50.491Z,94.21
2019-05-16T01:36:33.349Z,94.26
2019-05-16T01:38:55.096Z,94.08
2019-05-16T01:41:29.251Z,94.37
2019-05-16T01:44:01.114Z,94.91
2019-05-16T01:46:32.517Z,95.26
2019-05-16T01:49:08.088Z,95.07
2019-05-16T01:51:39.913Z,95.37
2019-05-16T01:54:11.213Z,95.10
2019-05-16T01:56:44.381Z,95.24
2019-05-16T01:59:18.193Z,95.23
2019-05-16T02:01:49.888Z,94.96
2019-05-16T02:04:22.736Z,94.81
2019-05-16T02:06:55.012Z,94.31
2019-05-16T02:09:28.076Z,93.94
2019-05-16T02:11:59.379Z,94.01
2019-05-16T02:14:30.564Z,93.91
2019-05-16T02:17:01.878Z,93.77
2019-05-16T02:19:33.079Z,93.82
2019-05-16T02:22:08.941Z,94.12
2019-05-16T02:24:41.701Z,93.52
2019-05-16T02:27:14.915Z,93.84
2019-05-16T02:29:46.177Z,93.43
2019-05-16T02:32:17.652Z,93.31
2019-05-16T02:34:51.410Z,93.19
2019-05-16T02:37:29.246Z,93.11
2019-05-16T02:39:56.725Z,92.78
2019-05-16T02:42:31.093Z,92.64
2019-05-16T02:45:03.379Z,92.54
2019-05-16T02:47:46.855Z,92.63
2019-05-16T02:50:21.936Z,92.78
2019-05-16T02:52:52.574Z,92.25
2019-05-16T02:55:25.274Z,92.63
2019-05-16T02:57:57.019Z,91.92
2019-05-16T03:00:41.990Z,92.22
2019-05-16T03:03:11.913Z,92.28
2019-05-16T03:05:45.266Z,91.90
2019-05-16T03:08:21.023Z,91.50
2019-05-16T03:10:52.672Z,91.59
2019-05-16T03:13:24.593Z,91.80
2019-05-16T03:16:00.635Z,92.09
2019-05-16T03:18:32.515Z,91.76
2019-05-16T03:21:06.487Z,91.79
2019-05-16T03:23:41.696Z,91.76
2019-05-16T03:26:11.921Z,91.37
2019-05-16T03:28:46.318Z,91.03
2019-05-16T03:31:23.762Z,91.04
2019-05-16T03:33:58.870Z,91.12
2019-05-16T03:36:25.845Z,90.75
2019-05-16T03:38:57.270Z,91.26
2019-05-16T03:41:30.891Z,90.31
2019-05-16T03:44:01.722Z,90.68
2019-05-16T03:46:33.454Z,90.45
2019-05-16T03:49:06.168Z,90.15
2019-05-16T03:51:37.883Z,90.11
2019-05-16T03:54:12.503Z,89.70
2019-05-16T03:56:43.748Z,89.55
2019-05-16T03:59:16.618Z,88.99
2019-05-16T04:01:51.121Z,89.14
2019-05-16T04:04:22.459Z,89.39
2019-05-16T04:06:54.223Z,88.82
2019-05-16T04:09:25.695Z,88.78
2019-05-16T04:11:57.320Z,88.70
2019-05-16T04:14:30.931Z,88.82
2019-05-16T04:17:02.136Z,88.51
2019-05-16T04:19:33.832Z,88.64
2019-05-16T04:22:10.457Z,88.62
2019-05-16T04:24:43.895Z,88.56
2019-05-16T04:27:15.376Z,89.12
2019-05-16T04:29:47.117Z,89.38
2019-05-16T04:32:20.911Z,89.55
2019-05-16T04:34:52.269Z,90.04
2019-05-16T04:37:26.314Z,90.15
2019-05-16T04:40:01.324Z,89.77
2019-05-16T04:42:41.683Z,89.79
2019-05-16T04:45:16.705Z,89.90
2019-05-16T04:47:51.201Z,89.58
2019-05-16T04:50:23.134Z,89.76
2019-05-16T04:52:55.768Z,89.77
2019-05-16T04:55:31.678Z,89.52
2019-05-16T04:58:10.449Z,89.91
2019-05-16T05:00:42.006Z,89.59
2019-05-16T05:03:14.080Z,89.66
2019-05-16T05:05:46.304Z,89.46
2019-05-16T05:08:21.924Z,89.35
2019-05-16T05:10:52.461Z,89.95
2019-05-16T05:13:25.057Z,89.67
2019-05-16T05:16:02.037Z,89.97
2019-05-16T05:19:10.871Z,89.92
2019-05-16T05:21:42.802Z,90.27
2019-05-16T05:24:14.431Z,90.28
2019-05-16T05:26:46.345Z,90.21
2019-05-16T05:29:19.665Z,90.73
2019-05-16T05:31:55.047Z,90.96
2019-05-16T05:34:23.953Z,91.05
2019-05-16T05:36:55.497Z,91.58
2019-05-16T05:39:26.750Z,91.05
2019-05-16T05:42:00.247Z,91.53
2019-05-16T05:44:31.695Z,91.49
2019-05-16T05:47:03.013Z,91.68
2019-05-16T05:49:34.308Z,91.84
2019-05-16T05:52:06.236Z,92.00
2019-05-16T05:54:40.593Z,91.54
2019-05-16T05:57:10.618Z,91.62
2019-05-16T05:59:42.003Z,91.39
2019-05-16T06:02:14.327Z,91.60
2019-05-16T06:04:47.426Z,91.53
2019-05-16T06:07:20.583Z,91.73
2019-05-16T06:09:56.480Z,91.82
2019-05-16T06:12:26.717Z,90.99
2019-05-16T06:15:07.640Z,91.15
2019-05-16T06:17:41.661Z,91.26
2019-05-16T06:20:20.312Z,91.07
2019-05-16T06:22:52.067Z,90.54
2019-05-16T06:25:23.652Z,90.78
2019-05-16T06:27:55.027Z,90.84
2019-05-16T06:30:26.672Z,90.34
2019-05-16T06:32:59.706Z,90.51
2019-05-16T06:35:31.830Z,90.31
2019-05-16T06:38:03.393Z,89.69
2019-05-16T06:40:35.107Z,89.30
2019-05-16T06:43:06.716Z,89.68
2019-05-16T06:45:40.252Z,89.57
2019-05-16T06:48:10.981Z,89.42
2019-05-16T06:50:45.345Z,88.85
2019-05-16T06:53:16.798Z,88.06
2019-05-16T06:55:49.887Z,87.89
2019-05-16T06:58:22.472Z,88.53
2019-05-16T07:01:01.893Z,89.39
2019-05-16T07:03:32.104Z,88.35
2019-05-16T07:06:04.853Z,88.19
2019-05-16T07:08:36.503Z,87.67
2019-05-16T07:11:10.379Z,88.20
2019-05-16T07:13:42.424Z,88.25
2019-05-16T07:16:20.579Z,87.82
2019-05-16T07:18:51.790Z,86.52
2019-05-16T07:21:23.713Z,86.22
2019-05-16T07:24:00.172Z,85.83
2019-05-16T07:26:31.949Z,85.98
2019-05-16T07:29:04.066Z,86.54
2019-05-16T07:31:35.779Z,86.21
2019-05-16T07:34:10.195Z,85.83
2019-05-16T07:36:40.745Z,86.37
2019-05-16T07:39:12.658Z,85.25
2019-05-16T07:41:47.310Z,85.56
2019-05-16T07:44:20.875Z,85.19
2019-05-16T07:46:52.749Z,84.12
2019-05-16T07:49:24.294Z,84.00
2019-05-16T07:51:57.587Z,84.54
2019-05-16T07:54:34.066Z,84.56
2019-05-16T07:57:16.053Z,83.58
2019-05-16T07:59:40.499Z,82.66
2019-05-16T08:02:11.461Z,81.61
2019-05-16T08:04:45.044Z,82.93
2019-05-16T08:07:17.290Z,81.55
2019-05-16T08:09:50.951Z,81.79
2019-05-16T08:12:26.452Z,80.79
2019-05-16T08:14:56.589Z,79.40
2019-05-16T08:17:28.015Z,80.81
2019-05-16T08:20:00.354Z,80.11
2019-05-16T08:22:34.518Z,80.31
2019-05-16T08:25:16.841Z,80.94
2019-05-16T08:27:51.711Z,80.20
2019-05-16T08:30:23.008Z,80.94
2019-05-16T08:32:54.687Z,78.84
2019-05-16T08:35:26.083Z,79.22
2019-05-16T08:38:01.056Z,78.39
2019-05-16T08:40:59.658Z,78.71
2019-05-16T08:43:11.724Z,78.96
2019-05-16T08:45:41.941Z,79.30
2019-05-16T08:48:13.530Z,78.55
2019-05-16T08:50:53.878Z,78.18
2019-05-16T08:53:21.558Z,79.23
2019-05-16T08:55:51.786Z,77.53
2019-05-16T08:58:23.112Z,77.56
2019-05-16T09:00:55.775Z,77.66
2019-05-16T09:06:03.564Z,78.01
2019-05-16T09:08:35.084Z,78.39
2019-05-16T09:11:26.934Z,78.13
2019-05-16T09:13:39.214Z,76.50
2019-05-16T09:16:10.708Z,75.34
2019-05-16T09:18:32.824Z,77.94
2019-05-16T09:18:46.227Z,75.89
2019-05-16T09:21:17.984Z,74.52
2019-05-16T09:23:48.179Z,75.39
2019-05-16T09:26:20.004Z,74.33
2019-05-16T09:28:53.052Z,74.97
2019-05-16T09:31:27.260Z,73.92
2019-05-16T09:33:57.523Z,74.49
2019-05-16T09:36:29.066Z,74.82
2019-05-16T09:39:00.657Z,72.10
2019-05-16T09:41:46.336Z,73.42
2019-05-16T09:44:05.003Z,73.89
2019-05-16T09:46:37.644Z,73.63
2019-05-16T09:49:19.580Z,74.69
2019-05-16T09:51:42.018Z,73.45
2019-05-16T09:54:13.751Z,73.28
2019-05-16T09:56:47.858Z,73.04
2019-05-16T09:59:19.447Z,73.99
2019-05-16T10:01:50.744Z,73.80
2019-05-16T10:04:26.577Z,73.78
2019-05-16T10:06:59.965Z,73.34
2019-05-16T10:09:44.525Z,72.15
2019-05-16T10:12:14.809Z,71.80
2019-05-16T10:14:38.581Z,71.06
2019-05-16T10:17:10.091Z,72.33
2019-05-16T10:19:41.554Z,72.52
2019-05-16T10:22:17.043Z,71.62
2019-05-16T10:24:48.198Z,71.09
2019-05-16T10:27:19.827Z,71.16
2019-05-16T10:29:51.450Z,71.13
2019-05-16T10:32:22.916Z,70.16
2019-05-16T10:34:54.506Z,70.71
2019-05-16T10:37:26.840Z,70.52
2019-05-16T10:39:59.996Z,69.68
2019-05-16T10:42:42.394Z,71.46
2019-05-16T10:45:18.127Z,71.44
2019-05-16T10:47:51.196Z,71.50
2019-05-16T10:50:37.453Z,70.94
2019-05-16T10:53:32.602Z,71.27
2019-05-16T10:55:42.354Z,70.56
2019-05-16T10:58:13.938Z,70.80
2019-05-16T11:01:09.891Z,70.87
2019-05-16T11:03:18.617Z,70.81
2019-05-16T11:06:02.949Z,70.91
2019-05-16T11:08:23.562Z,69.75
2019-05-16T11:10:57.069Z,70.12
2019-05-16T11:13:28.316Z,68.79
2019-05-16T11:16:01.966Z,68.01
2019-05-16T11:18:33.619Z,67.57
2019-05-16T11:21:05.578Z,66.99
2019-05-16T11:23:37.439Z,68.23
2019-05-16T11:26:08.949Z,68.59
2019-05-16T11:28:40.518Z,67.59
2019-05-16T11:31:12.711Z,67.80
2019-05-16T11:33:44.177Z,66.14
2019-05-16T11:36:16.704Z,65.79
2019-05-16T11:38:50.704Z,64.39
2019-05-16T11:41:22.525Z,63.68
2019-05-16T11:43:56.759Z,64.43
2019-05-16T11:46:28.299Z,65.37
2019-05-16T11:49:02.524Z,66.39
2019-05-16T11:51:34.284Z,67.29
2019-05-16T11:54:08.007Z,65.62
2019-05-16T11:56:39.437Z,63.77
2019-05-16T11:59:11.600Z,63.43
2019-05-16T12:01:47.615Z,63.79
2019-05-16T12:04:19.585Z,63.72
2019-05-16T12:06:53.287Z,62.82
2019-05-16T12:09:32.256Z,64.20
2019-05-16T12:12:04.284Z,64.94
2019-05-16T12:14:36.736Z,64.04
2019-05-16T12:17:08.560Z,64.83
2019-05-16T12:19:44.028Z,64.79
2019-05-16T12:22:13.934Z,63.58
2019-05-16T12:24:47.577Z,61.83
2019-05-16T12:27:18.302Z,60.83
2019-05-16T12:29:54.823Z,60.67
2019-05-16T12:32:22.607Z,59.85
2019-05-16T12:34:53.878Z,57.90
2019-05-16T12:37:27.600Z,57.89
2019-05-16T12:39:59.368Z,60.34
2019-05-16T12:42:30.596Z,60.46
2019-05-16T12:45:14.727Z,62.84
2019-05-16T12:47:47.163Z,62.49
2019-05-16T12:50:20.296Z,60.87
2019-05-16T12:52:51.560Z,60.55
2019-05-16T12:55:27.118Z,60.40
2019-05-16T12:58:14.369Z,58.92
2019-05-16T13:00:44.004Z,57.10
2019-05-16T13:03:16.702Z,56.15
2019-05-16T13:05:49.311Z,56.24
2019-05-16T13:08:20.745Z,57.64
2019-05-16T13:10:52.259Z,57.30
2019-05-16T13:13:23.888Z,56.77
2019-05-16T13:15:55.245Z,57.22
2019-05-16T13:18:27.669Z,56.54
2019-05-16T13:20:59.497Z,55.45
2019-05-16T13:23:30.789Z,54.43
2019-05-16T13:26:02.261Z,54.80
2019-05-16T13:28:33.590Z,53.14
2019-05-16T13:31:07.688Z,53.70
2019-05-16T13:33:39.897Z,56.04
2019-05-16T13:36:11.988Z,56.31
2019-05-16T13:38:43.792Z,54.29
2019-05-16T13:41:18.008Z,53.97
2019-05-16T13:43:48.699Z,51.99
2019-05-16T13:46:22.039Z,49.88
2019-05-16T13:48:54.108Z,52.52
2019-05-16T13:51:26.647Z,54.04
2019-05-16T13:53:58.344Z,54.91
2019-05-16T13:56:29.893Z,52.42
2019-05-16T13:59:01.913Z,51.34
2019-05-16T14:01:33.741Z,51.06
2019-05-16T14:04:09.502Z,53.48
2019-05-16T14:06:41.677Z,55.44
2019-05-16T14:09:12.278Z,55.80
2019-05-16T14:11:46.219Z,53.12
2019-05-16T14:14:33.570Z,55.39
2019-05-16T14:16:52.527Z,56.52
2019-05-16T14:19:23.983Z,56.56
2019-05-16T14:21:56.963Z,59.21
2019-05-16T14:24:30.981Z,60.60
2019-05-16T14:27:02.397Z,60.03
2019-05-16T14:29:33.983Z,59.49
2019-05-16T14:32:09.817Z,60.10
2019-05-16T14:34:38.999Z,59.09
2019-05-16T14:37:10.360Z,59.81
2019-05-16T14:39:41.933Z,60.06
2019-05-16T14:42:13.454Z,60.60
2019-05-16T14:45:03.721Z,61.45
2019-05-16T14:47:19.647Z,60.10
2019-05-16T14:49:51.157Z,60.77
2019-05-16T14:52:26.972Z,61.07
2019-05-16T14:54:57.666Z,59.44
2019-05-16T14:57:29.551Z,56.83
2019-05-16T15:00:01.083Z,56.04
2019-05-16T15:02:43.307Z,57.23
2019-05-16T15:05:18.220Z,58.29
2019-05-16T15:07:50.412Z,57.92
2019-05-16T15:10:29.108Z,57.90
2019-05-16T15:13:00.993Z,56.55
2019-05-16T15:15:32.515Z,58.09
2019-05-16T15:18:08.478Z,58.39
2019-05-16T15:20:42.559Z,58.17
2019-05-16T15:23:17.570Z,56.92
2019-05-16T15:25:48.655Z,57.39
2019-05-16T15:28:27.682Z,60.88
2019-05-16T15:30:58.372Z,58.88
2019-05-16T15:33:30.122Z,57.32
2019-05-16T15:36:01.683Z,54.80
2019-05-16T15:38:33.397Z,54.20
2019-05-16T15:41:04.583Z,54.58
2019-05-16T15:43:36.857Z,55.55
2019-05-16T15:46:10.620Z,55.57
2019-05-16T15:48:42.409Z,55.57
2019-05-16T15:51:13.803Z,57.15
2019-05-16T15:53:46.260Z,56.65
2019-05-16T15:56:22.082Z,57.84
2019-05-16T15:58:53.334Z,57.37
2019-05-16T16:01:27.084Z,58.22
2019-05-16T16:04:09.045Z,59.03
2019-05-16T16:06:43.101Z,58.65
2019-05-16T16:09:17.335Z,57.84
2019-05-16T16:11:49.093Z,58.51
2019-05-16T16:14:36.796Z,59.60
2019-05-16T16:17:21.538Z,58.30
2019-05-16T16:19:54.452Z,56.65
2019-05-16T16:22:26.931Z,56.19
2019-05-16T16:25:13.122Z,57.11
2019-05-16T16:27:46.336Z,59.59
2019-05-16T16:30:18.814Z,60.39
2019-05-16T16:32:50.209Z,59.37
2019-05-16T16:35:21.481Z,59.46
2019-05-16T16:37:52.800Z,58.95
2019-05-16T16:40:26.556Z,58.99
2019-05-16T16:42:57.160Z,59.36
2019-05-16T16:45:28.651Z,58.72
2019-05-16T16:48:00.600Z,58.37
2019-05-16T16:50:32.370Z,58.09
2019-05-16T16:53:03.770Z,58.72
2019-05-16T16:55:37.025Z,58.81
2019-05-16T16:58:09.595Z,59.95
2019-05-16T17:00:41.253Z,59.41
2019-05-16T17:03:13.018Z,58.98
2019-05-16T17:05:46.523Z,57.66
2019-05-16T17:08:18.411Z,59.72
2019-05-16T17:10:57.719Z,59.59
2019-05-16T17:13:29.008Z,59.25
2019-05-16T17:16:00.643Z,61.06
2019-05-16T17:18:33.932Z,62.61
2019-05-16T17:21:07.962Z,61.26
2019-05-16T17:23:39.607Z,60.60
2019-05-16T17:26:11.167Z,59.52
2019-05-16T17:28:42.488Z,57.52
2019-05-16T17:31:16.569Z,57.45
2019-05-16T17:33:47.253Z,58.49
2019-05-16T17:36:18.646Z,60.62
2019-05-16T17:38:49.975Z,61.68
2019-05-16T17:41:21.562Z,60.78
2019-05-16T17:43:53.554Z,61.02
2019-05-16T17:46:34.831Z,62.03
2019-05-16T17:48:59.455Z,65.17
2019-05-16T17:51:31.212Z,68.63
2019-05-16T17:54:02.656Z,69.21
2019-05-16T17:56:34.198Z,66.63
2019-05-16T17:59:07.279Z,64.59
2019-05-16T18:01:39.065Z,63.74
2019-05-16T18:04:11.694Z,66.48
2019-05-16T18:06:47.273Z,65.49
2019-05-16T18:09:18.781Z,64.54
2019-05-16T18:11:50.377Z,64.63
2019-05-16T18:14:21.864Z,64.40
2019-05-16T18:16:59.636Z,63.85
2019-05-16T18:19:27.093Z,63.78
2019-05-16T18:21:59.423Z,63.75
2019-05-16T18:24:31.005Z,66.09
2019-05-16T18:27:02.404Z,66.08
2019-05-16T18:29:36.536Z,67.29
2019-05-16T18:32:09.938Z,67.81
2019-05-16T18:34:41.694Z,66.03
2019-05-16T18:37:13.686Z,65.86
2019-05-16T18:39:47.273Z,64.42
2019-05-16T18:42:19.259Z,63.52
2019-05-16T18:44:51.670Z,63.33
2019-05-16T18:47:26.925Z,62.54
2019-05-16T18:49:58.525Z,62.85
2019-05-16T18:52:30.147Z,63.43
2019-05-16T18:55:02.340Z,62.37
2019-05-16T18:57:44.264Z,62.50
2019-05-16T19:00:17.805Z,62.78
2019-05-16T19:02:51.271Z,61.93
2019-05-16T19:05:22.797Z,60.57
2019-05-16T19:07:56.337Z,59.69
2019-05-16T19:10:28.246Z,58.87
2019-05-16T19:12:59.965Z,58.35
2019-05-16T19:15:31.224Z,57.92
2019-05-16T19:18:02.470Z,58.20
2019-05-16T19:20:34.046Z,58.26
2019-05-16T19:23:07.347Z,57.72
2019-05-16T19:25:38.894Z,58.04
2019-05-16T19:28:10.262Z,59.26
2019-05-16T19:30:42.503Z,58.97
2019-05-16T19:33:14.319Z,58.78
2019-05-16T19:35:46.859Z,59.53
2019-05-16T19:38:19.794Z,60.51
2019-05-16T19:40:51.244Z,61.08
2019-05-16T19:43:26.482Z,61.10
2019-05-16T19:45:58.649Z,63.08
2019-05-16T19:48:31.165Z,62.52
2019-05-16T19:51:02.698Z,63.77
2019-05-16T19:53:36.357Z,68.01
2019-05-16T19:56:07.587Z,70.00
2019-05-16T19:58:40.248Z,69.17
2019-05-16T20:01:12.088Z,69.63
2019-05-16T20:03:43.675Z,72.10
2019-05-16T20:06:16.864Z,74.79
2019-05-16T20:08:50.280Z,75.94
2019-05-16T20:11:21.748Z,76.49
2019-05-16T20:13:53.615Z,76.71
2019-05-16T20:16:27.323Z,77.11
2019-05-16T20:18:58.311Z,77.14
2019-05-16T20:21:30.442Z,78.28
2019-05-16T20:24:02.425Z,78.66
2019-05-16T20:26:34.105Z,78.21
2019-05-16T20:29:17.105Z,79.01
2019-05-16T20:31:51.405Z,78.79
2019-05-16T20:34:22.995Z,78.82
2019-05-16T20:36:57.078Z,79.01
2019-05-16T20:39:28.318Z,78.82
2019-05-16T20:41:59.899Z,79.28
2019-05-16T20:44:32.501Z,78.81
2019-05-16T20:47:07.264Z,78.23
2019-05-16T20:49:38.624Z,78.52
2019-05-16T20:52:10.697Z,78.24
2019-05-16T20:54:42.442Z,78.54
2019-05-16T20:57:14.557Z,77.73
2019-05-16T20:59:49.061Z,77.73
2019-05-16T21:02:20.033Z,78.26
2019-05-16T21:04:51.672Z,77.44
2019-05-16T21:07:23.704Z,76.51
2019-05-16T21:09:56.997Z,77.04
2019-05-16T21:12:29.636Z,76.92
2019-05-16T21:15:02.104Z,78.66
2019-05-16T21:17:46.684Z,78.78
2019-05-16T21:20:18.832Z,77.53
2019-05-16T21:22:50.295Z,78.53
2019-05-16T21:25:26.272Z,79.14
2019-05-16T21:27:57.692Z,79.34
2019-05-16T21:30:30.302Z,78.90
2019-05-16T21:33:02.018Z,79.17
2019-05-16T21:35:33.516Z,79.01
2019-05-16T21:38:08.747Z,77.78
2019-05-16T21:40:38.625Z,75.02
2019-05-16T21:43:11.532Z,74.08
2019-05-16T21:45:43.294Z,72.35
2019-05-16T21:48:16.361Z,70.40
2019-05-16T21:50:48.855Z,68.85
2019-05-16T21:53:20.784Z,67.98
2019-05-16T21:55:52.462Z,66.94
2019-05-16T21:58:26.706Z,67.86
2019-05-16T22:00:59.577Z,75.88
2019-05-16T22:03:31.386Z,80.44
2019-05-16T22:06:02.720Z,81.23
2019-05-16T22:08:36.388Z,78.03
2019-05-16T22:11:07.625Z,75.83
2019-05-16T22:13:39.231Z,76.28
2019-05-16T22:16:10.828Z,73.21
2019-05-16T22:18:42.582Z,71.18
2019-05-16T22:21:16.364Z,75.33
2019-05-16T22:23:47.996Z,80.98
2019-05-16T22:26:19.994Z,83.53
2019-05-16T22:28:51.682Z,82.43
2019-05-16T22:31:24.261Z,81.85
2019-05-16T22:33:58.442Z,77.96
2019-05-16T22:36:30.054Z,74.48
2019-05-16T22:39:01.554Z,74.36
2019-05-16T22:41:33.091Z,74.20
2019-05-16T22:44:08.569Z,73.29
2019-05-16T22:46:37.647Z,73.60
2019-05-16T22:49:09.196Z,78.15
2019-05-16T22:51:40.947Z,76.93
2019-05-16T22:54:12.405Z,81.47
2019-05-16T22:56:43.748Z,84.33
2019-05-16T22:59:16.605Z,86.15
2019-05-16T23:01:49.020Z,86.52
2019-05-16T23:04:20.372Z,86.60
2019-05-16T23:06:56.453Z,83.69
2019-05-16T23:09:28.368Z,79.79
2019-05-16T23:12:00.053Z,77.01
2019-05-16T23:14:31.990Z,74.40
2019-05-16T23:17:06.496Z,73.12
2019-05-16T23:19:37.626Z,73.14
2019-05-16T23:22:09.109Z,75.08
2019-05-16T23:24:40.607Z,77.95
2019-05-16T23:27:12.258Z,82.54
2019-05-16T23:29:43.936Z,84.68
2019-05-16T23:32:15.589Z,85.49
2019-05-16T23:34:46.990Z,86.18
2019-05-16T23:37:18.303Z,86.63
2019-05-16T23:39:49.942Z,87.68
2019-05-16T23:42:23.714Z,85.55
2019-05-16T23:44:56.730Z,83.11
2019-05-16T23:47:29.608Z,80.36
2019-05-16T23:50:02.899Z,80.45
2019-05-16T23:52:44.287Z,80.36
2019-05-16T23:55:17.551Z,80.48
2019-05-16T23:57:48.931Z,81.49
